Terminal Aerodrome Forecast
Issued by NWS Melbourne, FL

Home | Current Version | Previous Version | Text Only | Print | Product List | Glossary On
Versions: 1 2 3 4 5 6 7 8 9 10 11 12 13 14
000
FTUS42 KMLB 191100
TAFDAB
TAF
KDAB 191120Z 1912/2012 00000KT P6SM SCT150 BKN250
     FM191500 36004KT P6SM FEW120 SCT250
     FM191800 05006KT P6SM SCT100 BKN250=

USA.gov is the U.S. government's official web portal to all federal, state and local government web resources and services.